createdAt,value
2018-05-11T00:00:55.693Z,7.10
2018-05-11T00:03:23.946Z,7.50
2018-05-11T00:05:52.224Z,7.27
2018-05-11T00:08:19.813Z,7.53
2018-05-11T00:10:47.316Z,8.40
2018-05-11T00:13:14.804Z,8.37
2018-05-11T00:15:43.105Z,7.93
2018-05-11T00:18:10.668Z,9.00
2018-05-11T00:20:38.225Z,9.70
2018-05-11T00:23:05.724Z,9.37
2018-05-11T00:25:33.228Z,7.77
2018-05-11T00:28:01.488Z,8.50
2018-05-11T00:30:29.001Z,9.80
2018-05-11T00:32:56.536Z,10.20
2018-05-11T00:35:24.097Z,10.20
2018-05-11T00:37:51.588Z,9.70
2018-05-11T00:40:19.097Z,9.70
2018-05-11T00:42:47.360Z,10.23
2018-05-11T00:45:15.949Z,10.10
2018-05-11T00:47:44.216Z,10.50
2018-05-11T00:50:13.162Z,11.50
2018-05-11T00:52:41.669Z,10.63
2018-05-11T00:55:21.206Z,10.70
2018-05-11T00:57:49.321Z,10.53
2018-05-11T01:00:17.837Z,9.97
2018-05-11T01:02:46.348Z,10.00
2018-05-11T01:05:14.714Z,9.90
2018-05-11T01:07:42.773Z,10.20
2018-05-11T01:10:10.284Z,10.23
2018-05-11T01:12:38.546Z,11.07
2018-05-11T01:15:06.132Z,10.70
2018-05-11T01:17:33.644Z,10.83
2018-05-11T01:20:01.804Z,11.40
2018-05-11T01:22:29.313Z,9.37
2018-05-11T01:24:58.397Z,10.03
2018-05-11T01:27:26.692Z,10.60
2018-05-11T01:29:54.200Z,9.63
2018-05-11T01:32:21.718Z,10.40
2018-05-11T01:34:49.453Z,10.50
2018-05-11T01:37:16.973Z,10.20
2018-05-11T01:39:44.570Z,9.27
2018-05-11T01:42:12.016Z,10.67
2018-05-11T01:44:40.330Z,9.80
2018-05-11T01:47:07.845Z,9.20
2018-05-11T01:49:35.876Z,9.27
2018-05-11T01:52:03.388Z,9.23
2018-05-11T01:54:31.656Z,11.03
2018-05-11T01:56:59.176Z,9.80
2018-05-11T01:59:27.065Z,9.77
2018-05-11T02:01:54.572Z,9.33
2018-05-11T02:04:23.233Z,9.23
2018-05-11T02:06:51.534Z,10.13
2018-05-11T02:09:19.892Z,10.07
2018-05-11T02:11:49.105Z,10.90
2018-05-11T02:14:16.600Z,10.03
2018-05-11T02:16:44.121Z,10.63
2018-05-11T02:19:14.456Z,9.63
2018-05-11T02:21:42.164Z,10.30
2018-05-11T02:24:10.428Z,10.70
2018-05-11T02:26:37.937Z,10.57
2018-05-11T02:29:06.201Z,10.80
2018-05-11T02:31:35.730Z,11.10
2018-05-11T02:34:03.231Z,10.90
2018-05-11T02:36:30.742Z,10.63
2018-05-11T02:38:59.388Z,10.17
2018-05-11T02:41:26.897Z,10.57
2018-05-11T02:43:55.645Z,10.00
2018-05-11T02:46:23.925Z,10.37
2018-05-11T02:48:52.222Z,10.20
2018-05-11T02:51:20.753Z,10.37
2018-05-11T02:53:48.929Z,10.30
2018-05-11T02:56:16.453Z,10.27
2018-05-11T02:58:43.997Z,11.10
2018-05-11T03:01:15.234Z,10.87
2018-05-11T03:03:42.733Z,10.83
2018-05-11T03:06:10.245Z,11.40
2018-05-11T03:08:38.506Z,11.00
2018-05-11T03:11:07.575Z,10.57
2018-05-11T03:13:35.674Z,10.90
2018-05-11T03:16:03.952Z,10.50
2018-05-11T03:18:33.358Z,10.20
2018-05-11T03:21:00.741Z,10.20
2018-05-11T03:23:28.777Z,9.80
2018-05-11T03:25:56.289Z,9.90
2018-05-11T03:28:23.821Z,10.10
2018-05-11T03:30:52.480Z,10.40
2018-05-11T03:33:21.319Z,10.13
2018-05-11T03:35:48.840Z,10.43
2018-05-11T03:38:17.100Z,10.40
2018-05-11T03:40:44.612Z,10.03
2018-05-11T03:43:12.140Z,10.13
2018-05-11T03:45:40.423Z,11.03
2018-05-11T03:48:07.936Z,10.20
2018-05-11T03:50:36.257Z,9.13
2018-05-11T03:53:03.756Z,10.97
2018-05-11T03:55:31.272Z,10.57
2018-05-11T03:57:58.764Z,10.10
2018-05-11T04:00:26.920Z,9.70
2018-05-11T04:03:06.290Z,8.83
2018-05-11T04:05:47.626Z,9.50
2018-05-11T04:08:26.858Z,9.30
2018-05-11T04:10:54.416Z,8.30
2018-05-11T04:13:21.912Z,8.57
2018-05-11T04:15:49.425Z,9.73
2018-05-11T04:18:16.940Z,9.20
2018-05-11T04:20:44.522Z,8.70
2018-05-11T04:23:11.964Z,8.70
2018-05-11T04:25:40.075Z,8.50
2018-05-11T04:28:07.588Z,8.30
2018-05-11T04:30:36.007Z,8.93
2018-05-11T04:33:03.572Z,7.60
2018-05-11T04:35:31.124Z,8.53
2018-05-11T04:37:59.398Z,7.83
2018-05-11T04:40:26.900Z,7.73
2018-05-11T04:42:54.722Z,8.13
2018-05-11T04:45:24.112Z,8.87
2018-05-11T04:47:52.296Z,7.80
2018-05-11T04:50:20.553Z,7.33
2018-05-11T04:52:48.061Z,8.23
2018-05-11T04:55:15.597Z,7.77
2018-05-11T04:57:43.777Z,7.90
2018-05-11T05:00:12.809Z,8.10
2018-05-11T05:02:40.325Z,7.50
2018-05-11T05:05:07.827Z,8.47
2018-05-11T05:07:35.341Z,7.37
2018-05-11T05:10:03.885Z,8.03
2018-05-11T05:12:34.151Z,7.73
2018-05-11T05:15:02.336Z,7.80
2018-05-11T05:17:29.852Z,8.27
2018-05-11T05:19:58.805Z,7.53
2018-05-11T05:22:26.316Z,7.13
2018-05-11T05:24:54.580Z,7.40
2018-05-11T05:27:22.881Z,6.80
2018-05-11T05:29:50.377Z,7.30
2018-05-11T05:32:19.058Z,7.27
2018-05-11T05:34:47.217Z,6.80
2018-05-11T05:37:14.732Z,7.10
2018-05-11T05:39:43.032Z,6.90
2018-05-11T05:42:11.180Z,7.00
2018-05-11T05:44:40.270Z,6.20
2018-05-11T05:47:09.163Z,6.23
2018-05-11T05:49:37.464Z,5.80
2018-05-11T05:52:05.068Z,5.50
2018-05-11T05:54:33.707Z,6.00
2018-05-11T05:57:01.266Z,6.23
2018-05-11T05:59:29.741Z,6.00
2018-05-11T06:01:58.696Z,6.57
2018-05-11T06:04:27.700Z,5.33
2018-05-11T06:06:55.216Z,6.03
2018-05-11T06:09:23.530Z,6.47
2018-05-11T06:11:51.293Z,6.13
2018-05-11T06:14:20.738Z,6.70
2018-05-11T06:16:48.237Z,6.53
2018-05-11T06:19:15.748Z,6.73
2018-05-11T06:21:43.245Z,7.20
2018-05-11T06:24:10.864Z,7.03
2018-05-11T06:26:38.360Z,6.23
2018-05-11T06:29:06.405Z,7.93
2018-05-11T06:31:33.918Z,7.63
2018-05-11T06:34:01.440Z,8.17
2018-05-11T06:36:28.937Z,8.43
2018-05-11T06:38:56.452Z,8.90
2018-05-11T06:41:23.984Z,8.03
2018-05-11T06:43:51.552Z,7.60
2018-05-11T06:46:19.446Z,7.30
2018-05-11T06:48:46.962Z,8.40
2018-05-11T06:51:15.225Z,7.50
2018-05-11T06:53:44.169Z,8.60
2018-05-11T06:56:11.700Z,9.60
2018-05-11T06:58:39.217Z,8.67
2018-05-11T07:01:08.075Z,10.33
2018-05-11T07:03:36.242Z,9.27
2018-05-11T07:06:03.737Z,9.43
2018-05-11T07:08:31.345Z,9.90
2018-05-11T07:10:59.826Z,8.67
2018-05-11T07:13:27.344Z,10.20
2018-05-11T07:15:57.325Z,8.87
2018-05-11T07:18:24.837Z,9.13
2018-05-11T07:20:54.684Z,8.80
2018-05-11T07:23:22.201Z,8.57
2018-05-11T07:25:50.507Z,9.47
2018-05-11T07:28:18.769Z,9.60
2018-05-11T07:30:46.348Z,10.00
2018-05-11T07:33:13.868Z,10.90
2018-05-11T07:35:42.179Z,11.23
2018-05-11T07:38:09.716Z,10.97
2018-05-11T07:40:38.980Z,9.90
2018-05-11T07:43:08.418Z,9.70
2018-05-11T07:45:35.884Z,9.80
2018-05-11T07:48:03.401Z,10.97
2018-05-11T07:50:32.625Z,9.93
2018-05-11T07:53:00.909Z,10.50
2018-05-11T07:55:29.712Z,10.00
2018-05-11T07:57:57.982Z,11.30
2018-05-11T08:00:25.481Z,11.70
2018-05-11T08:02:53.761Z,10.50
2018-05-11T08:05:21.283Z,11.40
2018-05-11T08:07:50.296Z,10.97
2018-05-11T08:10:18.615Z,10.87
2018-05-11T08:12:46.134Z,10.57
2018-05-11T08:15:13.633Z,11.10
2018-05-11T08:17:41.749Z,11.53
2018-05-11T08:20:09.250Z,12.03
2018-05-11T08:22:36.854Z,11.23
2018-05-11T08:25:04.412Z,10.37
2018-05-11T08:27:32.760Z,9.53
2018-05-11T08:30:00.599Z,9.50
2018-05-11T08:32:29.240Z,10.63
2018-05-11T08:34:58.166Z,10.00
2018-05-11T08:37:25.689Z,10.80
2018-05-11T08:39:53.263Z,10.80
2018-05-11T08:42:20.829Z,10.67
2018-05-11T08:44:48.369Z,9.37
2018-05-11T08:47:15.873Z,9.70
2018-05-11T08:49:43.480Z,10.53
2018-05-11T08:52:11.856Z,10.67
2018-05-11T08:54:39.376Z,10.27
2018-05-11T08:57:08.436Z,9.60
2018-05-11T08:59:37.336Z,10.20
2018-05-11T09:02:04.871Z,10.67
2018-05-11T09:04:32.384Z,10.40
2018-05-11T09:07:00.709Z,10.77
2018-05-11T09:09:29.168Z,11.43
2018-05-11T09:11:57.437Z,11.60
2018-05-11T09:14:25.729Z,9.50
2018-05-11T09:16:54.115Z,10.10
2018-05-11T09:19:21.633Z,11.00
2018-05-11T09:21:49.128Z,8.27
2018-05-11T09:24:17.815Z,8.47
2018-05-11T09:26:45.881Z,9.77
2018-05-11T09:29:13.397Z,7.93
2018-05-11T09:31:40.904Z,10.03
2018-05-11T09:34:09.281Z,9.20
2018-05-11T09:36:39.834Z,10.13
2018-05-11T09:39:07.357Z,10.70
2018-05-11T09:41:34.881Z,10.27
2018-05-11T09:44:02.397Z,10.50
2018-05-11T09:46:29.943Z,9.37
2018-05-11T09:48:57.461Z,9.90
2018-05-11T09:51:25.777Z,10.67
2018-05-11T09:53:53.292Z,11.20
2018-05-11T09:56:21.557Z,10.83
2018-05-11T09:58:49.072Z,12.47
2018-05-11T10:01:17.812Z,11.80
2018-05-11T10:03:45.333Z,11.40
2018-05-11T10:06:12.841Z,12.13
2018-05-11T10:08:40.683Z,11.53
2018-05-11T10:11:09.084Z,12.00
2018-05-11T10:13:36.604Z,11.10
2018-05-11T10:16:04.786Z,10.40
2018-05-11T10:18:33.431Z,9.77
2018-05-11T10:21:00.930Z,11.17
2018-05-11T10:23:28.461Z,11.67
2018-05-11T10:25:55.964Z,9.53
2018-05-11T10:28:24.466Z,10.00
2018-05-11T10:30:52.752Z,10.77
2018-05-11T10:33:21.025Z,9.83
2018-05-11T10:35:49.332Z,9.53
2018-05-11T10:38:17.105Z,10.13
2018-05-11T10:40:45.405Z,9.57
2018-05-11T10:43:12.909Z,9.87
2018-05-11T10:45:43.705Z,9.50
2018-05-11T10:48:11.204Z,8.80
2018-05-11T10:50:38.720Z,9.93
2018-05-11T10:53:06.220Z,9.57
2018-05-11T10:55:34.046Z,9.57
2018-05-11T10:58:01.562Z,10.33
2018-05-11T11:00:29.089Z,11.00
2018-05-11T11:02:57.348Z,9.10
2018-05-11T11:05:25.162Z,9.17
2018-05-11T11:07:52.663Z,9.37
2018-05-11T11:10:20.181Z,8.80
2018-05-11T11:12:47.690Z,9.73
2018-05-11T11:15:15.209Z,10.23
2018-05-11T11:17:44.776Z,9.00
2018-05-11T11:20:13.060Z,8.50
2018-05-11T11:22:40.561Z,10.70
2018-05-11T11:25:08.085Z,10.13
2018-05-11T11:27:35.590Z,9.30
2018-05-11T11:30:04.096Z,10.77
2018-05-11T11:32:34.275Z,10.70
2018-05-11T11:35:01.789Z,9.47
2018-05-11T11:37:30.837Z,10.80
2018-05-11T11:40:00.870Z,11.23
2018-05-11T11:42:29.073Z,10.70
2018-05-11T11:44:58.037Z,9.87
2018-05-11T11:47:29.032Z,12.30
2018-05-11T11:49:57.855Z,11.27
2018-05-11T11:52:25.353Z,10.50
2018-05-11T11:54:53.637Z,12.30
2018-05-11T11:57:21.973Z,11.30
2018-05-11T11:59:49.489Z,12.40
2018-05-11T12:02:16.994Z,12.07
2018-05-11T12:04:44.517Z,13.53
2018-05-11T12:07:12.563Z,12.73
2018-05-11T12:09:40.632Z,11.90
2018-05-11T12:12:09.512Z,13.07
2018-05-11T12:14:38.375Z,13.73
2018-05-11T12:17:05.878Z,13.03
2018-05-11T12:19:33.400Z,12.63
2018-05-11T12:22:00.905Z,12.27
2018-05-11T12:24:28.437Z,12.97
2018-05-11T12:26:55.941Z,14.23
2018-05-11T12:29:24.267Z,12.33
2018-05-11T12:31:53.252Z,12.80
2018-05-11T12:34:21.516Z,13.20
2018-05-11T12:36:49.358Z,10.37
2018-05-11T12:39:16.861Z,11.30
2018-05-11T12:41:46.425Z,11.33
2018-05-11T12:44:13.929Z,11.33
2018-05-11T12:46:41.517Z,12.00
2018-05-11T12:49:11.871Z,11.43
2018-05-11T12:51:39.389Z,11.57
2018-05-11T12:54:06.893Z,12.30
2018-05-11T12:56:34.413Z,13.37
2018-05-11T12:59:02.897Z,11.23
2018-05-11T13:01:30.420Z,10.80
2018-05-11T13:03:58.688Z,10.53
2018-05-11T13:06:27.677Z,12.27
2018-05-11T13:08:55.945Z,13.00
2018-05-11T13:11:23.468Z,13.60
2018-05-11T13:13:50.968Z,12.57
2018-05-11T13:16:19.258Z,11.07
2018-05-11T13:18:47.529Z,12.53
2018-05-11T13:21:17.265Z,12.83
2018-05-11T13:23:44.764Z,12.07
2018-05-11T13:26:12.944Z,11.50
2018-05-11T13:28:40.452Z,11.13
2018-05-11T13:31:08.656Z,12.33
2018-05-11T13:33:37.350Z,12.10
2018-05-11T13:36:04.873Z,13.47
2018-05-11T13:38:32.380Z,12.13
2018-05-11T13:41:00.458Z,11.97
2018-05-11T13:43:28.285Z,12.90
2018-05-11T13:45:55.805Z,12.00
2018-05-11T13:48:24.187Z,13.40
2018-05-11T13:50:51.932Z,12.77
2018-05-11T13:53:20.609Z,13.50
2018-05-11T13:55:49.036Z,12.60
2018-05-11T13:58:16.540Z,11.77
2018-05-11T14:00:44.960Z,12.53
2018-05-11T14:03:12.461Z,12.23
2018-05-11T14:05:39.977Z,15.20
2018-05-11T14:08:07.494Z,12.90
2018-05-11T14:10:35.649Z,14.33
2018-05-11T14:13:04.344Z,13.93
2018-05-11T14:15:31.861Z,15.53
2018-05-11T14:17:59.365Z,14.57
2018-05-11T14:20:26.876Z,13.60
2018-05-11T14:22:55.110Z,15.77
2018-05-11T14:25:22.634Z,15.00
2018-05-11T14:27:51.569Z,17.00
2018-05-11T14:30:20.201Z,14.40
2018-05-11T14:32:49.758Z,16.30
2018-05-11T14:35:18.048Z,14.90
2018-05-11T14:37:47.136Z,18.30
2018-05-11T14:40:15.421Z,18.37
2018-05-11T14:42:43.705Z,18.47
2018-05-11T14:45:11.220Z,16.70
2018-05-11T14:47:38.738Z,16.00
2018-05-11T14:50:06.241Z,16.10
2018-05-11T14:52:34.287Z,16.87
2018-05-11T14:55:01.801Z,16.70
2018-05-11T14:57:30.093Z,16.70
2018-05-11T15:00:00.437Z,16.10
2018-05-11T15:02:27.956Z,14.20
2018-05-11T15:04:56.224Z,14.57
2018-05-11T15:07:25.549Z,14.67
2018-05-11T15:09:53.057Z,15.83
2018-05-11T15:12:20.762Z,14.83
2018-05-11T15:14:50.025Z,14.50
2018-05-11T15:17:17.540Z,14.20
2018-05-11T15:19:45.692Z,16.10
2018-05-11T15:22:13.217Z,14.00
2018-05-11T15:24:40.722Z,14.23
2018-05-11T15:27:08.245Z,14.73
2018-05-11T15:29:36.517Z,14.53
2018-05-11T15:32:04.037Z,15.00
2018-05-11T15:34:33.269Z,15.20
2018-05-11T15:37:00.789Z,14.87
2018-05-11T15:39:29.754Z,14.70
2018-05-11T15:41:57.893Z,15.27
2018-05-11T15:44:25.393Z,13.83
2018-05-11T15:46:52.913Z,15.07
2018-05-11T15:49:21.621Z,14.80
2018-05-11T15:51:49.905Z,12.33
2018-05-11T15:54:17.410Z,15.30
2018-05-11T15:56:46.046Z,13.83
2018-05-11T15:59:13.549Z,13.70
2018-05-11T16:01:41.074Z,14.77
2018-05-11T16:04:08.577Z,15.63
2018-05-11T16:06:37.216Z,15.87
2018-05-11T16:09:04.716Z,17.80
2018-05-11T16:11:33.224Z,15.60
2018-05-11T16:14:01.499Z,15.80
2018-05-11T16:16:29.790Z,16.43
2018-05-11T16:18:58.068Z,15.70
2018-05-11T16:21:26.363Z,15.80
2018-05-11T16:23:53.864Z,17.30
2018-05-11T16:26:21.378Z,14.83
2018-05-11T16:28:48.884Z,14.57
2018-05-11T16:31:16.407Z,15.17
2018-05-11T16:33:43.911Z,14.40
2018-05-11T16:36:11.435Z,15.80
2018-05-11T16:38:41.145Z,13.30
2018-05-11T16:41:08.666Z,15.70
2018-05-11T16:43:36.169Z,13.30
2018-05-11T16:46:03.673Z,13.70
2018-05-11T16:48:35.397Z,15.07
2018-05-11T16:51:02.945Z,13.40
2018-05-11T16:53:30.779Z,13.13
2018-05-11T16:55:58.280Z,13.10
2018-05-11T16:58:25.796Z,13.13
2018-05-11T17:00:53.301Z,12.00
2018-05-11T17:03:21.015Z,13.30
2018-05-11T17:05:48.517Z,11.97
2018-05-11T17:08:16.208Z,12.53
2018-05-11T17:10:43.889Z,12.60
2018-05-11T17:13:12.840Z,12.47
2018-05-11T17:15:40.525Z,12.63
2018-05-11T17:18:08.809Z,12.00
2018-05-11T17:20:36.820Z,11.93
2018-05-11T17:23:05.716Z,13.07
2018-05-11T17:25:33.217Z,12.00
2018-05-11T17:28:01.564Z,11.30
2018-05-11T17:30:29.025Z,12.23
2018-05-11T17:32:56.742Z,11.00
2018-05-11T17:35:24.245Z,12.40
2018-05-11T17:37:51.765Z,11.77
2018-05-11T17:40:19.266Z,11.47
2018-05-11T17:42:46.785Z,11.77
2018-05-11T17:47:48.937Z,12.00
2018-05-11T17:50:17.213Z,11.37
2018-05-11T17:52:45.496Z,12.17
2018-05-11T17:55:13.021Z,12.00
2018-05-11T17:57:41.988Z,11.93
2018-05-11T18:00:09.493Z,12.90
2018-05-11T18:02:37.781Z,12.67
2018-05-11T18:05:05.609Z,12.50
2018-05-11T18:07:33.129Z,11.33
2018-05-11T18:10:01.706Z,11.10
2018-05-11T18:12:29.965Z,11.50
2018-05-11T18:14:57.465Z,11.50
2018-05-11T18:17:26.101Z,11.70
2018-05-11T18:19:54.505Z,11.20
2018-05-11T18:22:22.367Z,10.40
2018-05-11T18:24:50.545Z,10.20
2018-05-11T18:27:18.924Z,10.63
2018-05-11T18:29:46.420Z,10.43
2018-05-11T18:32:13.943Z,10.07
2018-05-11T18:34:41.436Z,9.70
2018-05-11T18:37:08.965Z,10.83
2018-05-11T18:39:37.717Z,9.87
2018-05-11T18:42:05.145Z,9.43
2018-05-11T18:44:32.665Z,10.10
2018-05-11T18:47:00.928Z,10.37
2018-05-11T18:49:29.396Z,10.73
2018-05-11T18:51:56.961Z,10.63
2018-05-11T18:54:24.696Z,11.20
2018-05-11T18:56:52.907Z,11.40
2018-05-11T18:59:20.433Z,10.73
2018-05-11T19:01:48.802Z,11.20
2018-05-11T19:04:17.980Z,10.97
2018-05-11T19:06:46.496Z,11.40
2018-05-11T19:09:14.776Z,11.27
2018-05-11T19:11:42.345Z,10.97
2018-05-11T19:14:11.160Z,11.27
2018-05-11T19:16:38.694Z,12.60
2018-05-11T19:19:07.093Z,11.17
2018-05-11T19:21:35.217Z,11.37
2018-05-11T19:24:03.505Z,12.20
2018-05-11T19:26:31.772Z,10.37
2018-05-11T19:29:00.057Z,11.93
2018-05-11T19:31:28.325Z,10.47
2018-05-11T19:33:56.957Z,11.60
2018-05-11T19:36:24.453Z,12.50
2018-05-11T19:38:51.968Z,11.60
2018-05-11T19:41:20.292Z,11.00
2018-05-11T19:43:49.260Z,11.77
2018-05-11T19:46:17.551Z,11.07
2018-05-11T19:48:45.073Z,11.17
2018-05-11T19:51:12.572Z,11.60
2018-05-11T19:53:40.092Z,11.37
2018-05-11T19:56:07.589Z,10.47
2018-05-11T19:58:35.189Z,11.80
2018-05-11T20:01:02.745Z,10.90
2018-05-11T20:03:30.265Z,10.73
2018-05-11T20:05:57.769Z,10.93
2018-05-11T20:08:25.821Z,11.90
2018-05-11T20:10:54.168Z,10.23
2018-05-11T20:13:21.630Z,11.50
2018-05-11T20:15:49.221Z,11.70
2018-05-11T20:18:16.825Z,11.83
2018-05-11T20:20:45.038Z,11.50
2018-05-11T20:23:13.343Z,13.00
2018-05-11T20:25:41.447Z,11.40
2018-05-11T20:28:08.968Z,11.73
2018-05-11T20:30:36.477Z,11.60
2018-05-11T20:33:03.997Z,13.20
2018-05-11T20:35:31.500Z,12.43
2018-05-11T20:37:59.028Z,11.70
2018-05-11T20:40:26.535Z,12.37
2018-05-11T20:42:54.799Z,11.27
2018-05-11T20:45:22.317Z,11.13
2018-05-11T20:47:49.821Z,11.40
2018-05-11T20:50:17.908Z,13.17
2018-05-11T20:52:46.177Z,11.93
2018-05-11T20:55:14.457Z,11.30
2018-05-11T20:57:42.782Z,10.70
2018-05-11T21:00:11.031Z,13.00
2018-05-11T21:02:39.425Z,13.00
2018-05-11T21:05:06.952Z,12.53
2018-05-11T21:07:35.217Z,12.67
2018-05-11T21:10:03.504Z,11.90
2018-05-11T21:12:31.773Z,12.60
2018-05-11T21:15:00.053Z,13.00
2018-05-11T21:17:28.320Z,13.33
2018-05-11T21:19:56.605Z,13.00
2018-05-11T21:22:24.873Z,13.37
2018-05-11T21:24:54.663Z,13.20
2018-05-11T21:27:22.169Z,17.40
2018-05-11T21:29:49.688Z,15.20
2018-05-11T21:32:17.191Z,13.67
2018-05-11T21:34:44.714Z,14.53
2018-05-11T21:37:13.017Z,12.87
2018-05-11T21:39:40.532Z,13.40
2018-05-11T21:42:08.577Z,12.93
2018-05-11T21:44:36.677Z,14.00
2018-05-11T21:47:04.181Z,21.90
2018-05-11T21:49:31.702Z,21.50
2018-05-11T21:51:59.206Z,18.93
2018-05-11T21:56:59.400Z,16.70
2018-05-11T21:59:27.493Z,14.90
2018-05-11T22:01:55.529Z,12.80
2018-05-11T22:04:23.133Z,12.77
2018-05-11T22:06:50.689Z,14.50
2018-05-11T22:09:18.244Z,13.87
2018-05-11T22:11:45.749Z,15.13
2018-05-11T22:14:13.687Z,14.13
2018-05-11T22:16:44.069Z,14.77
2018-05-11T22:19:11.600Z,13.73
2018-05-11T22:21:42.846Z,14.50
2018-05-11T22:24:10.370Z,14.20
2018-05-11T22:26:37.877Z,13.70
2018-05-11T22:29:07.592Z,13.50
2018-05-11T22:31:35.092Z,14.00
2018-05-11T22:34:02.604Z,13.80
2018-05-11T22:36:30.119Z,13.43
2018-05-11T22:38:57.660Z,13.87
2018-05-11T22:41:25.976Z,14.87
2018-05-11T22:43:54.261Z,14.30
2018-05-11T22:46:23.009Z,13.57
2018-05-11T22:48:50.564Z,12.83
2018-05-11T22:51:18.760Z,14.47
2018-05-11T22:53:46.269Z,14.17
2018-05-11T22:56:14.578Z,13.90
2018-05-11T22:58:43.321Z,13.73
2018-05-11T23:01:10.841Z,14.50
2018-05-11T23:03:39.341Z,13.67
2018-05-11T23:06:06.860Z,13.63
2018-05-11T23:08:36.405Z,12.50
2018-05-11T23:11:03.924Z,12.97
2018-05-11T23:13:31.473Z,13.20
2018-05-11T23:15:59.984Z,13.13
2018-05-11T23:18:28.320Z,15.43
2018-05-11T23:20:56.604Z,14.10
2018-05-11T23:23:24.885Z,15.10
2018-05-11T23:25:53.899Z,13.93
2018-05-11T23:28:21.730Z,15.63
2018-05-11T23:30:50.674Z,16.30
2018-05-11T23:33:18.180Z,15.50
2018-05-11T23:35:46.477Z,14.53
2018-05-11T23:38:14.830Z,15.40
2018-05-11T23:40:43.113Z,14.83
2018-05-11T23:43:11.957Z,14.50
2018-05-11T23:45:39.472Z,14.37
2018-05-11T23:48:07.036Z,14.10
2018-05-11T23:50:35.384Z,14.40
2018-05-11T23:53:03.684Z,14.67
2018-05-11T23:55:31.208Z,14.70
2018-05-11T23:57:59.472Z,15.00
